Time;durP1;ratioP1;P1;durP2;ratioP2;P2;SDS_P1;SDS_P2;PMS_P1;PMS_P2;Temp;Humidity;BMP_temperature;BMP_pressure;BME280_temperature;BME280_humidity;BME280_pressure;Samples;Min_cycle;Max_cycle;Signal;HPM_P1;HPM_P2
2023/08/06 00:00:38;;;;;;;16.38;14.45;;;14.10;99.90;;;;;;6108858;23;20025;-82
2023/08/06 00:03:04;;;;;;;19.87;15.63;;;14.10;99.90;;;;;;6107574;23;20853;-83
2023/08/06 00:05:30;;;;;;;15.32;13.57;;;14.10;99.90;;;;;;6157242;23;20075;-82
2023/08/06 00:07:55;;;;;;;15.33;13.73;;;14.10;99.90;;;;;;6132029;23;20021;-83
2023/08/06 00:10:21;;;;;;;16.07;13.47;;;14.10;99.90;;;;;;6156278;23;20060;-83
2023/08/06 00:12:48;;;;;;;15.30;12.97;;;14.10;99.90;;;;;;6156625;23;20147;-83
2023/08/06 00:15:14;;;;;;;14.60;13.05;;;14.10;99.90;;;;;;6133207;23;20013;-82
2023/08/06 00:17:40;;;;;;;14.20;12.75;;;14.10;99.90;;;;;;6134758;23;20144;-82
2023/08/06 00:20:06;;;;;;;16.20;13.93;;;14.00;99.90;;;;;;6134273;23;20017;-83
2023/08/06 00:22:37;;;;;;;16.55;14.73;;;14.10;99.90;;;;;;6110726;23;20017;-82
2023/08/06 00:25:04;;;;;;;19.92;14.35;;;14.00;99.90;;;;;;6158885;23;20013;-82
2023/08/06 00:27:30;;;;;;;15.10;12.52;;;14.00;99.90;;;;;;6158526;23;20489;-82
2023/08/06 00:29:56;;;;;;;17.63;13.03;;;14.00;99.90;;;;;;6110367;23;20017;-82
2023/08/06 00:32:22;;;;;;;14.27;12.73;;;14.00;99.90;;;;;;6159592;23;20025;-83
2023/08/06 00:34:50;;;;;;;14.50;12.75;;;14.00;99.90;;;;;;6158512;23;20100;-87
2023/08/06 00:37:17;;;;;;;13.13;11.82;;;13.50;99.90;;;;;;6159599;23;20017;-82
2023/08/06 00:39:43;;;;;;;14.15;12.65;;;14.00;99.90;;;;;;6159649;23;20024;-82
2023/08/06 00:42:09;;;;;;;;;;;14.00;99.90;;;;;;6159929;23;20021;-82
2023/08/06 00:44:35;;;;;;;15.30;12.77;;;14.00;99.90;;;;;;6159890;23;19947;-82
2023/08/06 00:47:02;;;;;;;14.10;12.68;;;14.00;99.90;;;;;;6134082;23;20417;-83
2023/08/06 00:49:28;;;;;;;12.45;11.15;;;14.00;99.90;;;;;;6158998;23;20017;-82
2023/08/06 00:51:54;;;;;;;14.05;11.43;;;14.00;99.90;;;;;;6159366;23;20024;-82
2023/08/06 00:54:20;;;;;;;13.70;11.60;;;14.00;99.90;;;;;;6135303;23;20020;-83
2023/08/06 00:56:47;;;;;;;12.60;11.30;;;14.00;99.90;;;;;;6134750;23;20017;-82
2023/08/06 00:59:13;;;;;;;14.48;12.98;;;14.00;99.90;;;;;;6134327;23;20013;-82
2023/08/06 01:01:38;;;;;;;15.10;11.10;;;14.00;99.90;;;;;;6135277;23;20454;-82
2023/08/06 01:04:04;;;;;;;13.03;11.73;;;14.00;99.90;;;;;;6110213;23;20020;-82
2023/08/06 01:06:47;;;;;;;13.77;11.60;;;14.00;99.90;;;;;;6159084;23;20303;-83
2023/08/06 01:09:50;;;;;;;12.38;11.18;;;14.00;99.90;;;;;;6133579;23;20461;-82
2023/08/06 01:12:52;;;;;;;12.32;11.02;;;14.00;99.90;;;;;;6133817;23;20024;-82
2023/08/06 01:15:39;;;;;;;12.30;10.80;;;14.00;99.90;;;;;;6102856;23;20068;-82
2023/08/06 01:18:06;;;;;;;12.93;11.57;;;14.00;99.90;;;;;;6156677;23;20040;-82
2023/08/06 01:20:31;;;;;;;13.85;11.50;;;14.00;99.90;;;;;;6158892;23;20029;-82
2023/08/06 01:22:57;;;;;;;13.00;10.17;;;14.00;99.90;;;;;;6158261;23;20028;-82
2023/08/06 01:25:35;;;;;;;15.53;12.07;;;14.00;99.90;;;;;;6134023;23;20039;-82
2023/08/06 01:28:32;;;;;;;13.13;11.38;;;14.00;99.90;;;;;;6157626;23;20017;-83
2023/08/06 01:31:01;;;;;;;16.70;11.75;;;14.00;99.90;;;;;;6144230;23;20645;-82
2023/08/06 01:33:30;;;;;;;11.82;10.73;;;14.00;99.90;;;;;;6158350;23;20017;-82
2023/08/06 01:35:57;;;;;;;16.15;12.05;;;14.00;99.90;;;;;;6133165;23;20021;-82
2023/08/06 01:38:24;;;;;;;17.48;11.85;;;14.00;99.90;;;;;;6133881;23;20017;-83
2023/08/06 01:40:50;;;;;;;13.45;11.95;;;14.00;99.90;;;;;;6133853;23;20021;-82
2023/08/06 01:43:16;;;;;;;13.73;11.40;;;14.00;99.90;;;;;;6132355;23;20013;-83
2023/08/06 01:45:41;;;;;;;14.77;12.17;;;13.90;99.90;;;;;;6158276;23;20017;-83
2023/08/06 01:48:07;;;;;;;13.73;11.80;;;14.00;99.90;;;;;;6157086;23;20053;-83
2023/08/06 01:50:33;;;;;;;10.63;9.53;;;13.90;99.90;;;;;;6133551;23;20021;-82
2023/08/06 01:52:58;;;;;;;13.60;11.03;;;13.90;99.90;;;;;;6133352;23;20021;-83
2023/08/06 01:55:24;;;;;;;13.13;10.50;;;13.90;99.90;;;;;;6133376;23;20373;-83
2023/08/06 01:57:50;;;;;;;13.83;9.93;;;13.90;99.90;;;;;;6109511;23;20028;-82
2023/08/06 02:00:15;;;;;;;14.73;11.17;;;13.90;99.90;;;;;;6157149;23;20067;-82
2023/08/06 02:02:41;;;;;;;12.77;10.80;;;13.90;99.90;;;;;;6158798;23;20100;-82
2023/08/06 02:05:07;;;;;;;14.43;10.47;;;13.90;99.90;;;;;;6157517;23;20037;-82
2023/08/06 02:07:32;;;;;;;12.48;11.18;;;13.90;99.90;;;;;;6109168;23;20017;-83
2023/08/06 02:09:58;;;;;;;11.77;10.57;;;13.90;99.90;;;;;;6158092;23;20020;-85
2023/08/06 02:12:24;;;;;;;12.10;10.03;;;13.90;99.90;;;;;;6133453;23;20024;-83
2023/08/06 02:14:49;;;;;;;13.57;10.77;;;13.90;99.90;;;;;;6132543;23;20067;-82
2023/08/06 02:17:15;;;;;;;12.03;10.83;;;13.90;99.90;;;;;;6132760;23;20265;-82
2023/08/06 02:19:43;;;;;;;12.57;10.13;;;13.90;99.90;;;;;;6158346;23;20060;-82
2023/08/06 02:22:08;;;;;;;13.40;11.35;;;13.80;99.90;;;;;;6157281;23;20021;-83
2023/08/06 02:24:34;;;;;;;11.77;10.40;;;13.90;99.90;;;;;;6158030;23;20036;-82
2023/08/06 02:27:00;;;;;;;12.83;11.53;;;13.90;99.90;;;;;;6157509;23;20040;-86
2023/08/06 02:29:25;;;;;;;11.10;9.98;;;13.90;99.90;;;;;;6133293;23;20028;-83
2023/08/06 02:31:51;;;;;;;12.67;11.37;;;13.90;99.90;;;;;;6157468;23;20020;-82
2023/08/06 02:34:17;;;;;;;13.83;11.77;;;13.90;99.90;;;;;;6132705;23;20025;-82
2023/08/06 02:36:43;;;;;;;15.17;12.03;;;13.90;99.90;;;;;;6158021;23;20056;-85
2023/08/06 02:39:09;;;;;;;15.75;11.93;;;13.80;99.90;;;;;;6132433;23;20473;-83
2023/08/06 02:41:35;;;;;;;15.63;12.10;;;13.90;99.90;;;;;;6157434;23;20017;-83
2023/08/06 02:44:00;;;;;;;13.43;11.97;;;13.80;99.90;;;;;;6158038;23;20021;-82
2023/08/06 02:46:26;;;;;;;12.27;11.07;;;13.80;99.90;;;;;;6157208;23;20017;-84
2023/08/06 02:48:52;;;;;;;14.70;11.73;;;13.80;99.90;;;;;;6157648;23;20087;-84
2023/08/06 02:51:17;;;;;;;13.83;11.37;;;13.80;99.90;;;;;;6132649;23;20024;-82
2023/08/06 02:53:43;;;;;;;12.53;11.27;;;13.80;99.90;;;;;;6108106;23;20334;-82
2023/08/06 02:56:09;;;;;;;13.43;10.93;;;13.90;99.90;;;;;;6132660;23;20104;-82
2023/08/06 02:58:34;;;;;;;14.23;10.87;;;13.90;99.90;;;;;;6108797;23;20449;-83
2023/08/06 03:01:05;;;;;;;13.27;11.50;;;13.90;99.90;;;;;;6132971;23;20028;-82
2023/08/06 03:03:31;;;;;;;12.43;10.88;;;13.80;99.90;;;;;;6132403;23;20017;-82
2023/08/06 03:05:57;;;;;;;12.60;11.00;;;13.90;99.90;;;;;;6157440;23;20350;-83
2023/08/06 03:08:23;;;;;;;13.60;11.77;;;13.90;99.90;;;;;;6156773;23;20091;-82
2023/08/06 03:10:50;;;;;;;12.95;11.20;;;13.80;99.90;;;;;;6157690;23;20445;-82
2023/08/06 03:13:16;;;;;;;;;;;13.90;99.90;;;;;;6133198;23;20024;-82
2023/08/06 03:15:42;;;;;;;12.98;10.27;;;13.80;99.90;;;;;;6157093;23;20325;-83
2023/08/06 03:18:08;;;;;;;13.40;11.85;;;13.80;99.90;;;;;;6157226;23;20044;-86
2023/08/06 03:20:34;;;;;;;12.97;10.67;;;13.80;99.90;;;;;;6132730;23;20060;-82
2023/08/06 03:23:00;;;;;;;12.18;11.00;;;13.80;99.90;;;;;;6157374;23;20013;-82
2023/08/06 03:25:25;;;;;;;13.23;11.90;;;13.80;99.90;;;;;;6156907;23;20127;-83
2023/08/06 03:27:51;;;;;;;12.57;11.23;;;13.80;99.90;;;;;;6132973;23;20032;-82
2023/08/06 03:30:17;;;;;;;12.80;11.50;;;13.80;99.90;;;;;;6132616;23;20059;-83
2023/08/06 03:32:42;;;;;;;14.30;10.87;;;13.70;99.90;;;;;;6132519;23;20059;-82
2023/08/06 03:35:08;;;;;;;13.10;11.20;;;13.80;99.90;;;;;;6109139;23;20025;-82
2023/08/06 03:37:34;;;;;;;11.97;10.73;;;13.70;99.90;;;;;;6133282;23;20442;-82
2023/08/06 03:39:59;;;;;;;15.47;11.17;;;13.70;99.90;;;;;;6133591;23;20441;-82
2023/08/06 03:42:25;;;;;;;11.10;9.83;;;13.70;99.90;;;;;;6108984;23;20021;-82
2023/08/06 03:44:51;;;;;;;12.50;9.80;;;13.70;99.90;;;;;;6158015;23;20064;-82
2023/08/06 03:47:16;;;;;;;13.87;10.10;;;13.70;99.90;;;;;;6158023;23;20160;-82
2023/08/06 03:49:43;;;;;;;14.00;11.53;;;13.60;99.90;;;;;;6158298;23;20017;-82
2023/08/06 03:52:09;;;;;;;15.05;11.00;;;13.60;99.90;;;;;;6133474;23;20017;-82
2023/08/06 03:54:34;;;;;;;13.37;10.83;;;13.60;99.90;;;;;;6157917;23;20087;-82
2023/08/06 03:57:00;;;;;;;14.00;11.27;;;13.50;99.90;;;;;;6133828;23;20017;-82
2023/08/06 03:59:26;;;;;;;11.73;10.47;;;13.50;99.90;;;;;;6157788;23;20244;-82
2023/08/06 04:01:51;;;;;;;11.80;10.50;;;13.50;99.90;;;;;;6132893;23;20025;-86
2023/08/06 04:04:17;;;;;;;12.43;11.23;;;13.50;99.90;;;;;;6132323;23;20075;-83
2023/08/06 04:06:43;;;;;;;13.87;11.27;;;13.50;99.90;;;;;;6132712;23;20021;-83
2023/08/06 04:09:08;;;;;;;11.40;10.20;;;13.50;99.90;;;;;;6157342;23;20374;-82
2023/08/06 04:11:34;;;;;;;12.87;10.83;;;13.50;99.90;;;;;;6156852;23;20049;-82
2023/08/06 04:13:59;;;;;;;12.40;10.57;;;13.50;99.90;;;;;;6157389;23;20021;-83
2023/08/06 04:16:26;;;;;;;11.80;10.60;;;13.40;99.90;;;;;;6131869;23;20021;-83
2023/08/06 04:18:53;;;;;;;12.70;11.40;;;13.40;99.90;;;;;;6132844;23;20103;-82
2023/08/06 04:21:19;;;;;;;13.52;11.38;;;13.40;99.90;;;;;;6107987;23;20092;-82
2023/08/06 04:23:45;;;;;;;13.55;12.18;;;13.40;99.90;;;;;;6157372;23;20096;-82
2023/08/06 04:26:10;;;;;;;14.27;12.70;;;13.30;99.90;;;;;;6132802;23;20149;-83
2023/08/06 04:28:36;;;;;;;14.53;13.03;;;13.20;99.90;;;;;;6155356;23;20045;-82
2023/08/06 04:31:02;;;;;;;14.97;12.53;;;13.20;99.90;;;;;;6132883;23;20096;-82
2023/08/06 04:33:27;;;;;;;13.93;12.57;;;13.30;99.90;;;;;;6156449;23;20112;-82
2023/08/06 04:35:57;;;;;;;14.37;12.27;;;13.30;99.90;;;;;;6109378;23;20052;-82
2023/08/06 04:38:25;;;;;;;14.55;12.10;;;13.30;99.90;;;;;;6157523;23;20053;-83
2023/08/06 04:40:50;;;;;;;12.95;11.68;;;13.30;99.90;;;;;;6158160;23;20017;-82
2023/08/06 04:43:16;;;;;;;14.67;11.80;;;13.30;99.90;;;;;;6109503;23;20057;-82
2023/08/06 04:45:50;;;;;;;13.27;11.80;;;13.30;99.90;;;;;;6132790;23;20039;-82
2023/08/06 04:48:15;;;;;;;15.38;12.63;;;13.30;99.90;;;;;;6133682;23;20287;-82
2023/08/06 04:50:48;;;;;;;14.18;12.77;;;13.30;99.90;;;;;;6108829;23;20345;-82
2023/08/06 04:53:14;;;;;;;16.90;13.20;;;13.30;99.90;;;;;;6134089;23;20017;-82
2023/08/06 04:55:40;;;;;;;16.70;13.55;;;13.30;99.90;;;;;;6157854;23;20099;-82
2023/08/06 04:58:06;;;;;;;13.45;12.00;;;13.30;99.90;;;;;;6156623;23;20044;-82
2023/08/06 05:00:33;;;;;;;14.57;13.02;;;13.40;99.90;;;;;;6133001;23;20023;-82
2023/08/06 05:03:02;;;;;;;15.25;13.55;;;13.40;99.90;;;;;;6109324;23;20017;-82
2023/08/06 05:05:29;;;;;;;17.45;14.70;;;13.40;99.90;;;;;;6109413;23;20025;-83
2023/08/06 05:07:56;;;;;;;18.15;13.95;;;13.40;99.90;;;;;;6158615;23;20454;-83
2023/08/06 05:10:24;;;;;;;16.30;14.57;;;13.40;99.90;;;;;;6158404;23;20059;-85
2023/08/06 05:12:50;;;;;;;18.38;14.85;;;13.50;99.90;;;;;;6134042;23;20318;-83
2023/08/06 05:15:16;;;;;;;18.60;15.73;;;13.50;99.90;;;;;;6109479;23;20028;-81
2023/08/06 05:17:42;;;;;;;17.25;15.45;;;13.50;99.90;;;;;;6137347;23;20100;-85
2023/08/06 05:20:08;;;;;;;16.57;14.83;;;13.50;99.90;;;;;;6110066;23;20024;-84
2023/08/06 05:22:33;;;;;;;16.73;15.02;;;13.60;99.90;;;;;;6157660;23;20334;-84
2023/08/06 05:24:59;;;;;;;17.23;15.03;;;13.60;99.90;;;;;;6133406;23;20017;-85
2023/08/06 05:27:25;;;;;;;17.63;15.73;;;13.70;99.90;;;;;;6157734;23;20025;-86
2023/08/06 05:29:56;;;;;;;17.43;15.67;;;13.70;99.90;;;;;;6133587;23;20057;-84
2023/08/06 05:32:21;;;;;;;17.08;14.40;;;13.80;99.90;;;;;;6185379;23;20025;-85
2023/08/06 05:34:47;;;;;;;17.35;15.57;;;13.90;99.90;;;;;;6158670;23;20017;-84
2023/08/06 05:37:13;;;;;;;16.13;14.20;;;13.90;99.90;;;;;;6134095;23;20346;-85
2023/08/06 05:39:39;;;;;;;18.70;16.80;;;14.00;99.90;;;;;;6158374;23;20024;-84
2023/08/06 05:42:05;;;;;;;18.55;15.95;;;14.00;99.90;;;;;;6134807;23;20031;-84
2023/08/06 05:44:31;;;;;;;17.50;15.70;;;14.00;99.90;;;;;;6133961;23;20104;-84
2023/08/06 05:46:56;;;;;;;15.60;14.00;;;14.00;99.90;;;;;;6134550;23;20044;-84
2023/08/06 05:49:22;;;;;;;18.97;15.77;;;14.00;99.90;;;;;;6183453;23;20095;-84
2023/08/06 05:51:48;;;;;;;17.13;15.17;;;14.00;99.90;;;;;;6134213;23;20280;-84
2023/08/06 05:54:14;;;;;;;18.42;15.60;;;14.00;99.90;;;;;;6134672;23;20445;-84
2023/08/06 05:56:39;;;;;;;16.93;15.13;;;14.10;99.90;;;;;;6133631;23;20039;-85
2023/08/06 05:59:05;;;;;;;16.50;14.80;;;14.10;99.90;;;;;;6110064;23;20025;-83
2023/08/06 06:01:31;;;;;;;15.27;13.67;;;14.10;99.90;;;;;;6133724;23;20025;-85
2023/08/06 06:03:56;;;;;;;16.03;14.33;;;14.10;99.90;;;;;;6135255;23;20249;-83
2023/08/06 06:06:22;;;;;;;19.30;15.73;;;14.10;99.90;;;;;;6086018;23;20095;-87
2023/08/06 06:08:48;;;;;;;15.97;14.10;;;14.10;99.90;;;;;;6083983;23;20120;-85
2023/08/06 06:11:14;;;;;;;16.67;14.97;;;14.10;99.90;;;;;;6133734;23;20021;-85
2023/08/06 06:13:39;;;;;;;16.83;15.17;;;14.20;99.90;;;;;;6132889;23;20248;-81
2023/08/06 06:16:05;;;;;;;19.38;15.80;;;14.20;99.90;;;;;;6137027;23;20056;-86
2023/08/06 06:18:31;;;;;;;17.87;15.97;;;14.20;99.90;;;;;;6158251;23;20028;-85
2023/08/06 06:20:57;;;;;;;17.15;15.45;;;14.30;99.90;;;;;;6158154;23;20024;-85
2023/08/06 06:23:22;;;;;;;18.40;16.10;;;14.30;99.90;;;;;;6134729;23;20024;-85
2023/08/06 06:25:52;;;;;;;17.57;15.67;;;14.30;99.90;;;;;;6111054;23;20013;-85
2023/08/06 06:28:18;;;;;;;16.55;14.57;;;14.40;99.90;;;;;;6133366;23;20565;-85
2023/08/06 06:30:44;;;;;;;16.60;14.90;;;14.40;99.90;;;;;;6107606;23;20017;-86
2023/08/06 06:33:10;;;;;;;16.87;15.17;;;14.40;99.90;;;;;;6133169;23;20381;-85
2023/08/06 06:35:36;;;;;;;15.53;13.97;;;14.40;99.90;;;;;;6156927;23;20442;-85
2023/08/06 06:38:02;;;;;;;17.45;15.63;;;14.50;99.90;;;;;;6133238;23;20264;-84
2023/08/06 06:40:28;;;;;;;15.50;13.52;;;14.40;99.90;;;;;;6131821;23;20513;-85
2023/08/06 06:42:54;;;;;;;17.23;13.98;;;14.40;99.90;;;;;;6131296;23;20017;-86
2023/08/06 06:45:20;;;;;;;14.50;13.10;;;13.50;99.90;;;;;;6157164;23;20013;-86
2023/08/06 06:47:45;;;;;;;16.70;15.00;;;14.40;99.90;;;;;;6132839;23;20017;-84
2023/08/06 06:50:11;;;;;;;17.00;15.30;;;14.40;99.90;;;;;;6157674;23;20248;-85
2023/08/06 06:52:37;;;;;;;16.25;14.52;;;14.40;99.90;;;;;;6108335;23;20070;-85
2023/08/06 06:55:03;;;;;;;18.00;15.15;;;14.40;99.90;;;;;;6133085;23;20017;-84
2023/08/06 06:57:29;;;;;;;15.63;14.02;;;14.40;99.90;;;;;;6108911;23;20095;-84
2023/08/06 06:59:55;;;;;;;17.00;14.80;;;14.50;99.90;;;;;;6156411;23;20056;-85
2023/08/06 07:02:21;;;;;;;18.20;15.95;;;14.50;99.90;;;;;;6157492;23;20244;-85
2023/08/06 07:04:46;;;;;;;17.97;16.13;;;14.50;99.90;;;;;;6132165;23;20048;-84
2023/08/06 07:07:12;;;;;;;16.40;14.77;;;14.50;99.90;;;;;;6157513;23;20095;-87
2023/08/06 07:09:38;;;;;;;15.52;13.93;;;14.60;99.90;;;;;;6107656;23;20663;-87
2023/08/06 07:12:05;;;;;;;14.95;13.45;;;15.20;99.90;;;;;;6084954;23;20071;-87
2023/08/06 07:14:30;;;;;;;14.00;12.55;;;13.80;99.90;;;;;;6108308;23;20349;-87
2023/08/06 07:16:56;;;;;;;15.85;14.27;;;14.50;99.90;;;;;;6132188;23;20013;-87
2023/08/06 07:19:22;;;;;;;14.07;12.63;;;14.60;99.90;;;;;;6132914;23;20019;-86
2023/08/06 07:21:48;;;;;;;16.05;12.52;;;14.70;99.90;;;;;;6156766;23;20060;-89
2023/08/06 07:24:13;;;;;;;12.85;11.60;;;14.70;99.90;;;;;;6107839;23;20025;-88
2023/08/06 07:26:42;;;;;;;14.47;13.07;;;14.70;99.90;;;;;;6156443;23;20048;-89
2023/08/06 07:29:11;;;;;;;14.05;12.65;;;14.70;99.90;;;;;;6133060;23;20335;-90
2023/08/06 07:31:44;;;;;;;13.02;11.27;;;14.80;99.90;;;;;;6157388;23;20017;-89
2023/08/06 07:34:12;;;;;;;14.13;12.65;;;14.80;99.90;;;;;;6156941;23;20053;-88
2023/08/06 07:36:46;;;;;;;14.50;12.43;;;14.80;99.90;;;;;;6157565;23;20021;-88
2023/08/06 07:39:29;;;;;;;14.40;12.90;;;14.90;99.90;;;;;;6132370;23;20057;-88
2023/08/06 07:41:57;;;;;;;14.00;12.60;;;14.90;99.90;;;;;;6131972;23;20021;-87
2023/08/06 07:44:34;;;;;;;14.30;13.00;;;15.00;99.90;;;;;;6108701;23;20016;-88
2023/08/06 07:46:59;;;;;;;12.93;11.65;;;15.00;99.90;;;;;;6131938;23;20342;-89
2023/08/06 07:49:26;;;;;;;13.65;12.32;;;15.00;99.90;;;;;;6132973;23;20017;-88
2023/08/06 07:51:52;;;;;;;13.20;11.73;;;15.10;99.90;;;;;;6131817;23;20021;-85
2023/08/06 07:54:18;;;;;;;13.38;11.50;;;15.20;99.90;;;;;;6156621;23;20021;-85
2023/08/06 07:56:53;;;;;;;12.88;11.68;;;15.20;99.90;;;;;;6132562;23;20024;-90
2023/08/06 07:59:19;;;;;;;12.40;11.20;;;15.30;99.90;;;;;;6133189;23;20350;-84
2023/08/06 08:01:45;;;;;;;14.45;12.95;;;15.30;99.90;;;;;;6108150;23;20017;-83
2023/08/06 08:04:11;;;;;;;13.70;12.30;;;15.30;99.90;;;;;;6157396;23;20028;-84
2023/08/06 08:06:44;;;;;;;13.80;12.50;;;15.40;99.90;;;;;;6132477;23;20017;-82
2023/08/06 08:09:09;;;;;;;15.02;13.43;;;15.40;99.90;;;;;;6157227;23;20017;-84
2023/08/06 08:11:35;;;;;;;12.63;11.53;;;15.50;99.90;;;;;;6133382;23;20020;-84
2023/08/06 08:14:03;;;;;;;14.03;12.53;;;15.60;99.90;;;;;;6108565;23;20251;-86
2023/08/06 08:16:29;;;;;;;13.27;11.77;;;15.80;99.90;;;;;;6157574;23;20256;-86
2023/08/06 08:18:55;;;;;;;15.80;12.55;;;16.30;99.90;;;;;;6157499;23;20096;-88
2023/08/06 08:21:20;;;;;;;13.63;12.43;;;16.10;99.90;;;;;;6157870;23;20020;-86
2023/08/06 08:23:46;;;;;;;11.93;10.82;;;16.20;99.90;;;;;;6157690;23;20093;-88
2023/08/06 08:26:12;;;;;;;12.07;10.98;;;16.40;99.90;;;;;;6133111;23;20013;-85
2023/08/06 08:28:38;;;;;;;10.20;9.30;;;16.60;99.90;;;;;;6156701;23;20130;-84
2023/08/06 08:31:07;;;;;;;13.52;10.00;;;16.70;99.90;;;;;;6108488;23;20023;-86
2023/08/06 08:33:33;;;;;;;26.48;13.18;;;16.80;99.90;;;;;;6132385;23;20056;-83
2023/08/06 08:35:59;;;;;;;11.52;10.32;;;16.90;99.90;;;;;;6107630;23;20060;-84
2023/08/06 08:38:24;;;;;;;10.30;9.25;;;16.90;99.90;;;;;;6134232;23;20013;-84
2023/08/06 08:40:53;;;;;;;10.50;9.43;;;17.10;99.90;;;;;;6159230;23;20100;-84
2023/08/06 08:43:21;;;;;;;10.68;9.68;;;17.10;99.90;;;;;;6185525;23;20025;-86
2023/08/06 08:45:50;;;;;;;12.10;10.93;;;17.10;99.90;;;;;;6135076;23;20078;-84
2023/08/06 08:48:17;;;;;;;10.10;9.20;;;17.30;99.90;;;;;;6134903;23;20021;-84
2023/08/06 08:50:44;;;;;;;10.75;9.70;;;17.50;99.90;;;;;;6134937;23;20013;-85
2023/08/06 08:53:12;;;;;;;10.45;8.68;;;17.50;99.90;;;;;;6134327;23;20630;-83
2023/08/06 08:55:39;;;;;;;9.20;8.32;;;17.60;99.90;;;;;;6158907;23;20048;-85
2023/08/06 08:58:04;;;;;;;;;;;17.60;99.90;;;;;;6134945;23;20044;-84
2023/08/06 09:00:31;;;;;;;8.68;7.30;;;17.60;99.90;;;;;;6134292;23;19938;-84
2023/08/06 09:02:58;;;;;;;;;;;17.70;99.90;;;;;;6159492;23;20017;-84
2023/08/06 09:05:26;;;;;;;8.47;7.67;;;17.70;99.90;;;;;;6160294;23;19916;-84
2023/08/06 09:07:54;;;;;;;8.32;7.53;;;17.80;99.90;;;;;;6137010;23;20032;-83
2023/08/06 09:10:25;;;;;;;8.75;8.05;;;17.80;99.90;;;;;;6160001;23;20021;-82
2023/08/06 09:12:53;;;;;;;8.88;8.07;;;17.80;99.90;;;;;;6160766;23;20020;-83
2023/08/06 09:15:20;;;;;;;9.20;8.27;;;17.80;99.90;;;;;;6135162;23;20083;-85
2023/08/06 09:17:46;;;;;;;8.35;7.65;;;17.80;99.90;;;;;;6134902;23;20061;-85
2023/08/06 09:20:12;;;;;;;12.48;7.50;;;17.90;99.90;;;;;;6159529;23;20025;-86
2023/08/06 09:22:38;;;;;;;10.73;7.43;;;17.90;99.90;;;;;;6158926;23;20122;-86
2023/08/06 09:25:09;;;;;;;7.35;6.70;;;17.90;99.90;;;;;;6159007;23;20445;-85
2023/08/06 09:27:36;;;;;;;7.50;6.82;;;17.90;99.90;;;;;;6158537;23;20040;-85
2023/08/06 09:30:03;;;;;;;7.32;6.65;;;17.90;99.90;;;;;;6137374;23;20021;-86
2023/08/06 09:32:47;;;;;;;8.00;5.90;;;17.90;99.90;;;;;;6159539;23;20323;-86
2023/08/06 09:35:17;;;;;;;6.82;5.82;;;17.90;98.30;;;;;;6183677;23;20021;-88
2023/08/06 09:37:43;;;;;;;7.43;5.95;;;18.00;98.50;;;;;;6110108;23;20092;-88
2023/08/06 09:40:31;;;;;;;6.50;5.78;;;17.90;98.70;;;;;;6157854;23;20386;-87
2023/08/06 09:42:58;;;;;;;5.88;5.35;;;18.00;97.00;;;;;;6157679;23;20017;-87
2023/08/06 09:45:30;;;;;;;7.25;5.30;;;18.00;96.60;;;;;;6132984;23;20024;-87
2023/08/06 09:47:57;;;;;;;7.18;5.97;;;18.10;94.70;;;;;;6133605;23;20028;-86
2023/08/06 09:50:28;;;;;;;5.50;5.00;;;17.70;95.20;;;;;;6183631;23;20017;-86
2023/08/06 09:52:54;;;;;;;7.70;5.75;;;18.10;93.50;;;;;;6133861;23;20020;-86
2023/08/06 09:55:21;;;;;;;5.70;4.95;;;18.20;92.10;;;;;;6132723;23;20264;-86
2023/08/06 09:57:48;;;;;;;4.88;4.47;;;18.30;91.50;;;;;;6160831;23;20043;-84
2023/08/06 10:00:13;;;;;;;5.13;4.53;;;18.30;92.10;;;;;;6132853;23;20442;-87
2023/08/06 10:02:40;;;;;;;5.20;4.40;;;18.30;90.50;;;;;;6134663;23;20028;-86
2023/08/06 10:05:09;;;;;;;5.47;4.18;;;18.40;84.60;;;;;;6158472;23;20013;-87
2023/08/06 10:07:35;;;;;;;5.57;4.43;;;18.50;75.80;;;;;;6134880;23;20346;-87
2023/08/06 10:10:02;;;;;;;4.60;3.90;;;18.50;83.00;;;;;;6157975;23;20017;-87
2023/08/06 10:12:35;;;;;;;3.58;3.28;;;18.60;84.60;;;;;;6134598;23;20021;-87
2023/08/06 10:15:05;;;;;;;3.30;2.45;;;18.70;60.40;;;;;;6133457;23;20024;-87
2023/08/06 10:17:32;;;;;;;3.42;2.72;;;17.70;59.80;;;;;;6158537;23;20121;-87
2023/08/06 10:19:59;;;;;;;4.47;2.95;;;18.70;56.30;;;;;;6161675;23;20028;-87
2023/08/06 10:22:27;;;;;;;4.72;2.97;;;18.70;56.50;;;;;;6132828;23;20013;-88
2023/08/06 10:24:54;;;;;;;5.05;2.45;;;18.60;56.60;;;;;;6109628;23;20049;-87
2023/08/06 10:27:32;;;;;;;2.63;2.42;;;18.60;53.60;;;;;;6133433;23;20032;-86
2023/08/06 10:30:26;;;;;;;5.05;2.65;;;18.90;41.10;;;;;;6157864;23;20028;-86
2023/08/06 10:32:53;;;;;;;3.17;2.70;;;18.80;43.10;;;;;;6133353;23;20035;-87
2023/08/06 10:35:31;;;;;;;2.72;2.53;;;19.00;42.30;;;;;;6158243;23;20021;-87
2023/08/06 10:38:25;;;;;;;3.17;2.80;;;19.10;28.40;;;;;;6158166;23;20017;-84
2023/08/06 10:40:54;;;;;;;2.83;2.50;;;19.10;22.60;;;;;;6158985;23;20096;-86
2023/08/06 10:43:27;;;;;;;2.67;2.35;;;19.10;35.80;;;;;;6133043;23;20119;-87
2023/08/06 10:45:56;;;;;;;3.45;3.15;;;19.30;28.50;;;;;;6134417;23;20028;-87
2023/08/06 10:48:44;;;;;;;4.63;2.40;;;19.30;33.00;;;;;;6133248;23;20457;-87
2023/08/06 10:51:16;;;;;;;4.32;2.88;;;18.40;21.60;;;;;;6157786;23;20013;-88
2023/08/06 10:53:44;;;;;;;2.78;2.58;;;19.20;32.10;;;;;;6158835;23;20025;-87
2023/08/06 10:56:14;;;;;;;3.72;2.22;;;19.20;36.30;;;;;;6132596;23;20017;-87
2023/08/06 10:58:40;;;;;;;2.80;2.50;;;19.20;22.90;;;;;;6134718;23;20453;-87
2023/08/06 11:01:06;;;;;;;3.10;2.78;;;19.20;20.90;;;;;;6157922;23;20434;-85
2023/08/06 11:03:33;;;;;;;5.72;2.97;;;19.30;16.10;;;;;;6157353;23;20025;-85
2023/08/06 11:05:58;;;;;;;2.50;2.30;;;19.20;15.60;;;;;;6158206;23;20024;-84
2023/08/06 11:08:28;;;;;;;4.05;2.15;;;19.20;21.10;;;;;;6107710;23;20017;-85
2023/08/06 11:10:55;;;;;;;2.78;2.38;;;19.10;7.60;;;;;;6158807;23;20067;-86
2023/08/06 11:13:21;;;;;;;2.33;2.13;;;19.10;8.20;;;;;;6133411;23;20053;-85
2023/08/06 11:15:47;;;;;;;;;;;19.00;12.00;;;;;;6134675;23;20017;-84
2023/08/06 11:18:13;;;;;;;2.78;2.38;;;18.90;4.10;;;;;;6157917;23;19923;-85
2023/08/06 11:20:39;;;;;;;5.07;2.35;;;18.90;18.00;;;;;;6184587;23;20031;-85
2023/08/06 11:23:05;;;;;;;2.35;2.15;;;18.80;14.70;;;;;;6157899;23;20017;-83
2023/08/06 11:25:36;;;;;;;2.38;2.17;;;18.80;9.30;;;;;;6132216;23;20017;-85
2023/08/06 11:28:02;;;;;;;3.40;2.47;;;18.80;5.20;;;;;;6133957;23;20021;-87
2023/08/06 11:30:27;;;;;;;3.17;2.63;;;18.90;6.30;;;;;;6157787;23;20036;-88
2023/08/06 11:32:53;;;;;;;3.00;2.60;;;19.10;11.00;;;;;;6109255;23;20025;-88
2023/08/06 11:35:19;;;;;;;5.10;2.85;;;19.10;9.80;;;;;;6133118;23;20025;-87
2023/08/06 11:37:45;;;;;;;2.55;2.35;;;19.20;7.50;;;;;;6085423;23;20017;-88
2023/08/06 11:40:11;;;;;;;;;;;19.20;3.00;;;;;;6184981;23;20017;-87
2023/08/06 11:42:40;;;;;;;3.85;2.05;;;19.20;1.00;;;;;;6133701;23;19916;-87
2023/08/06 11:45:08;;;;;;;2.45;2.10;;;19.20;2.40;;;;;;6158402;23;20013;-87
2023/08/06 11:47:37;;;;;;;3.83;2.22;;;19.10;1.00;;;;;;6157326;23;20631;-87
2023/08/06 11:50:06;;;;;;;2.72;2.00;;;19.20;1.00;;;;;;6158457;23;20021;-87
2023/08/06 11:52:32;;;;;;;5.50;2.15;;;19.10;1.00;;;;;;6132571;23;20559;-87
2023/08/06 11:55:11;;;;;;;3.22;1.70;;;19.10;1.00;;;;;;6109467;23;20025;-87
2023/08/06 11:57:39;;;;;;;5.18;2.08;;;19.10;1.00;;;;;;6157548;23;20024;-87
2023/08/06 12:00:08;;;;;;;2.47;2.08;;;19.10;1.00;;;;;;6157877;23;20013;-87
2023/08/06 12:02:41;;;;;;;3.33;2.15;;;19.20;1.00;;;;;;6184027;23;20017;-87
2023/08/06 12:05:14;;;;;;;2.10;2.00;;;19.10;1.00;;;;;;6158232;23;20024;-87
2023/08/06 12:07:51;;;;;;;2.47;2.22;;;19.20;1.00;;;;;;6158281;23;20092;-88
2023/08/06 12:10:20;;;;;;;2.88;2.13;;;19.20;1.00;;;;;;6134537;23;20039;-87
2023/08/06 12:12:46;;;;;;;4.57;1.88;;;19.40;1.00;;;;;;6159780;23;20535;-87
2023/08/06 12:15:12;;;;;;;2.65;1.73;;;19.60;1.00;;;;;;6160256;23;20021;-87
2023/08/06 12:17:39;;;;;;;3.03;2.22;;;19.70;1.00;;;;;;6135566;23;20021;-87
2023/08/06 12:20:06;;;;;;;2.35;1.95;;;20.00;1.00;;;;;;6135758;23;20452;-87
2023/08/06 12:22:35;;;;;;;2.80;1.80;;;20.20;1.00;;;;;;6159744;23;20021;-87
2023/08/06 12:25:03;;;;;;;3.33;1.92;;;20.20;1.00;;;;;;6161465;23;20084;-87
2023/08/06 12:27:29;;;;;;;3.35;2.00;;;20.20;1.00;;;;;;6135514;23;20063;-87
2023/08/06 12:29:55;;;;;;;3.83;1.88;;;20.10;1.00;;;;;;6135091;23;20017;-87
2023/08/06 12:32:21;;;;;;;2.45;2.25;;;20.30;1.00;;;;;;6159380;23;20013;-87
2023/08/06 12:34:47;;;;;;;1.70;1.60;;;20.40;1.00;;;;;;6135136;23;20342;-87
2023/08/06 12:37:13;;;;;;;2.13;2.00;;;20.60;1.00;;;;;;6160207;23;20017;-87